Plano's Hourly Summary for Friday, May 11, 2018
Hour Temp
(f)
RH
(%)
Solar Rad.
(MJ/m2)
Rainfall
(in)
Wind
(mph)
5/11/2018 12:00 AM 76 50 0 0 5.23
5/11/2018 1:00 AM 75 53 0 0 5.69
5/11/2018 2:00 AM 74 59 0 0 6.29
5/11/2018 3:00 AM 72 65 0 0 6.09
5/11/2018 4:00 AM 71 70 0 0 5.94
5/11/2018 5:00 AM 70 73 0 0 4.81
5/11/2018 6:00 AM 69 78 0 0 5.13
5/11/2018 7:00 AM 69 77 0.02 0 5.22
5/11/2018 8:00 AM 70 74 0.23 0 4.86
5/11/2018 9:00 AM 71 69 0.68 0 5.81
5/11/2018 10:00 AM 74 62 1.36 0 6.3
5/11/2018 11:00 AM 77 55 1.86 0 6.63
5/11/2018 12:00 PM 79 51 2.72 0 6.97
5/11/2018 1:00 PM 81 46 3.26 0 7.76
5/11/2018 2:00 PM 83 45 2.46 0 6.45
5/11/2018 3:00 PM 84 43 3.14 0 7.5
5/11/2018 4:00 PM 85 42 2.78 0 7.42
5/11/2018 5:00 PM 86 41 2.31 0 6.94
5/11/2018 6:00 PM 86 41 1.68 0 6.94
5/11/2018 7:00 PM 85 41 0.98 0 6.67
5/11/2018 8:00 PM 84 42 0.31 0 6.15
5/11/2018 9:00 PM 82 45 0.01 0 5.19
5/11/2018 10:00 PM 80 49 0 0 4.41
5/11/2018 11:00 PM 79 50 0 0 4.73
Data Summary 77 55 23.80 0.00 6.05